Time;durP1;ratioP1;P1;durP2;ratioP2;P2;SDS_P1;SDS_P2;PMS_P1;PMS_P2;Temp;Humidity;BMP_temperature;BMP_pressure;BME280_temperature;BME280_humidity;BME280_pressure;Samples;Min_cycle;Max_cycle;Signal;HPM_P1;HPM_P2
2022/07/06 00:00:28;;;;;;;;;;;;;;;24.69;45.53;98690.16;2091325;28;19924;-49
2022/07/06 00:01:30;;;;;;;;;;;;;;;24.61;45.52;98695.97;2090398;28;19952;-50
2022/07/06 00:02:33;;;;;;;;;;;;;;;24.65;45.60;98690.88;2090792;28;19924;-52
2022/07/06 00:03:33;;;;;;;;;;;;;;;24.70;45.43;98696.41;2089296;28;19935;-53
2022/07/06 00:04:35;;;;;;;;;;;;;;;24.62;45.51;98697.59;2087549;28;20015;-53
2022/07/06 00:05:36;;;;;;;;;;;;;;;24.61;45.75;98695.97;2090578;28;19948;-55
2022/07/06 00:06:37;;;;;;;;;;;;;;;24.59;45.99;98689.13;2089182;28;20281;-53
2022/07/06 00:07:38;;;;;;;;;;;;;;;24.61;45.84;98681.59;2089344;28;19940;-52
2022/07/06 00:08:40;;;;;;;;;;;;;;;24.59;45.80;98681.81;2089628;28;19963;-54
2022/07/06 00:09:41;;;;;;;;;;;;;;;24.61;45.56;98687.00;2085903;28;19933;-51
2022/07/06 00:10:43;;;;;;;;;;;;;;;24.60;45.74;98686.19;2090629;28;19928;-51
2022/07/06 00:11:44;;;;;;;;;;;;;;;24.61;45.69;98674.25;2090384;28;19924;-51
2022/07/06 00:12:45;;;;;;;;;;;;;;;24.61;45.83;98682.41;2089615;28;19939;-54
2022/07/06 00:13:46;;;;;;;;;;;;;;;24.60;46.08;98686.19;2085887;28;19929;-54
2022/07/06 00:14:47;;;;;;;;;;;;;;;24.58;46.08;98682.88;2089838;28;19932;-52
2022/07/06 00:15:48;;;;;;;;;;;;;;;24.59;45.99;98694.56;2090424;28;19935;-52
2022/07/06 00:16:50;;;;;;;;;;;;;;;24.63;45.78;98685.69;2089821;28;19938;-53
2022/07/06 00:17:52;;;;;;;;;;;;;;;24.63;46.04;98687.59;2091014;28;19939;-52
2022/07/06 00:18:53;;;;;;;;;;;;;;;24.58;45.75;98682.88;2089577;28;20065;-50
2022/07/06 00:19:54;;;;;;;;;;;;;;;24.60;45.79;98679.91;2087945;28;19935;-53
2022/07/06 00:20:55;;;;;;;;;;;;;;;24.57;46.05;98675.78;2086267;28;20306;-56
2022/07/06 00:21:56;;;;;;;;;;;;;;;24.57;46.28;98666.84;2090726;28;19951;-50
2022/07/06 00:22:57;;;;;;;;;;;;;;;24.62;46.32;98672.38;2088117;28;19946;-52
2022/07/06 00:23:58;;;;;;;;;;;;;;;24.58;46.17;98673.94;2090005;28;21605;-54
2022/07/06 00:24:59;;;;;;;;;;;;;;;24.62;45.98;98673.19;2086103;28;19940;-53
2022/07/06 00:26:00;;;;;;;;;;;;;;;24.63;45.92;98669.44;2087625;28;20343;-52
2022/07/06 00:27:02;;;;;;;;;;;;;;;24.60;45.92;98675.34;2091222;28;19928;-48
2022/07/06 00:28:02;;;;;;;;;;;;;;;24.59;45.76;98668.25;2090899;28;19924;-50
2022/07/06 00:29:04;;;;;;;;;;;;;;;24.61;46.22;98679.69;2089850;28;19985;-49
2022/07/06 00:30:05;;;;;;;;;;;;;;;24.56;46.32;98684.19;2090288;28;19924;-49
2022/07/06 00:31:06;;;;;;;;;;;;;;;24.55;46.36;98683.38;2091583;28;19925;-49
2022/07/06 00:32:07;;;;;;;;;;;;;;;24.51;46.26;98676.78;2090372;28;19928;-49
2022/07/06 00:33:10;;;;;;;;;;;;;;;24.59;46.33;98683.72;2088697;28;20023;-48
2022/07/06 00:34:12;;;;;;;;;;;;;;;24.62;45.92;98684.03;2089603;28;19935;-50
2022/07/06 00:35:12;;;;;;;;;;;;;;;24.58;45.99;98682.88;2090234;28;19945;-49
2022/07/06 00:36:14;;;;;;;;;;;;;;;24.58;46.13;98688.31;2082922;28;19937;-49
2022/07/06 00:37:15;;;;;;;;;;;;;;;24.47;46.61;98686.47;2089660;28;20446;-53
2022/07/06 00:38:16;;;;;;;;;;;;;;;24.50;46.52;98688.69;2090747;28;20039;-49
2022/07/06 00:39:18;;;;;;;;;;;;;;;24.52;46.76;98683.84;2090127;28;19928;-51
2022/07/06 00:40:20;;;;;;;;;;;;;;;24.59;46.27;98684.53;2080539;28;20106;-50
2022/07/06 00:41:21;;;;;;;;;;;;;;;24.64;45.91;98695.47;2086751;28;19986;-49
2022/07/06 00:42:22;;;;;;;;;;;;;;;24.61;46.07;98695.97;2088693;28;19924;-49
2022/07/06 00:43:23;;;;;;;;;;;;;;;24.57;46.04;98702.91;2091937;28;19928;-47
2022/07/06 00:44:24;;;;;;;;;;;;;;;24.53;46.05;98701.75;2092259;28;19943;-49
2022/07/06 00:45:25;;;;;;;;;;;;;;;24.53;46.51;98699.06;2089313;28;19925;-55
2022/07/06 00:46:28;;;;;;;;;;;;;;;24.53;46.45;98696.34;2089887;28;20436;-51
2022/07/06 00:47:29;;;;;;;;;;;;;;;24.48;46.45;98698.94;2087494;28;19975;-50
2022/07/06 00:48:32;;;;;;;;;;;;;;;24.52;46.50;98700.94;2089599;28;20024;-50
2022/07/06 00:50:53;;;;;;;;;;;;;;;24.53;46.27;98701.75;2089746;28;20283;-50
2022/07/06 00:51:53;;;;;;;;;;;;;;;24.43;46.51;98701.53;2089150;28;20533;-49
2022/07/06 00:52:56;;;;;;;;;;;;;;;24.44;46.64;98709.47;2089291;28;20016;-49
2022/07/06 00:53:58;;;;;;;;;;;;;;;24.45;46.38;98699.44;2086517;28;19929;-50
2022/07/06 00:55:01;;;;;;;;;;;;;;;24.46;46.32;98701.91;2085068;28;20399;-52
2022/07/06 00:56:02;;;;;;;;;;;;;;;24.50;46.04;98699.53;2084453;28;19929;-48
2022/07/06 00:57:04;;;;;;;;;;;;;;;24.50;46.25;98699.53;2083912;28;19928;-51
2022/07/06 00:58:05;;;;;;;;;;;;;;;24.46;46.32;98701.06;2090764;28;19924;-51
2022/07/06 00:59:07;;;;;;;;;;;;;;;24.47;46.41;98700.84;2088373;28;20379;-50
2022/07/06 01:00:09;;;;;;;;;;;;;;;24.47;46.32;98705.44;2090143;28;19924;-50
2022/07/06 01:01:10;;;;;;;;;;;;;;;24.51;46.17;98706.59;2083685;28;20023;-50
2022/07/06 01:02:11;;;;;;;;;;;;;;;24.48;46.07;98702.47;2085944;28;19933;-49
2022/07/06 01:03:13;;;;;;;;;;;;;;;24.52;45.92;98695.53;2085002;28;20404;-48
2022/07/06 01:04:15;;;;;;;;;;;;;;;24.49;45.91;98700.59;2089695;28;19929;-49
2022/07/06 01:05:17;;;;;;;;;;;;;;;24.49;46.12;98698.72;2083958;28;19929;-50
2022/07/06 01:06:18;;;;;;;;;;;;;;;24.43;46.55;98699.69;2088773;28;19939;-50
2022/07/06 01:07:19;;;;;;;;;;;;;;;24.40;46.51;98702.00;2087007;28;19968;-49
2022/07/06 01:08:21;;;;;;;;;;;;;;;24.41;46.59;98701.78;2087647;28;19925;-47
2022/07/06 01:09:22;;;;;;;;;;;;;;;24.42;46.21;98700.69;2087872;28;19932;-51
2022/07/06 01:10:24;;;;;;;;;;;;;;;24.41;46.38;98700.97;2081455;28;19928;-48
2022/07/06 01:11:25;;;;;;;;;;;;;;;24.48;45.91;98704.38;2079237;28;20027;-48
2022/07/06 01:12:26;;;;;;;;;;;;;;;24.47;45.94;98703.56;2082823;28;19924;-53
2022/07/06 01:13:27;;;;;;;;;;;;;;;24.42;46.43;98699.88;2085213;28;20301;-49
2022/07/06 01:14:29;;;;;;;;;;;;;;;24.31;46.78;98696.13;2084437;28;19929;-49
2022/07/06 01:15:29;;;;;;;;;;;;;;;24.28;46.90;98693.91;2084300;28;19932;-50
2022/07/06 01:16:31;;;;;;;;;;;;;;;24.40;46.62;98694.69;2087264;28;19928;-52
2022/07/06 01:17:32;;;;;;;;;;;;;;;24.42;46.43;98697.16;2085637;28;20003;-49
2022/07/06 01:18:34;;;;;;;;;;;;;;;24.40;46.20;98693.88;2087251;28;19932;-48
2022/07/06 01:19:36;;;;;;;;;;;;;;;24.39;46.27;98694.94;2084680;28;19928;-49
2022/07/06 01:20:39;;;;;;;;;;;;;;;24.41;46.34;98682.78;2088640;28;20504;-48
2022/07/06 01:21:39;;;;;;;;;;;;;;;24.28;46.76;98689.31;2089720;28;20822;-49
2022/07/06 01:22:41;;;;;;;;;;;;;;;24.27;46.99;98690.38;2090944;28;19932;-53
2022/07/06 01:23:42;;;;;;;;;;;;;;;24.29;46.67;98688.25;2086724;28;20283;-50
2022/07/06 01:24:44;;;;;;;;;;;;;;;24.43;46.67;98690.66;2089846;28;19964;-52
2022/07/06 01:25:45;;;;;;;;;;;;;;;24.41;46.44;98679.28;2084820;28;19933;-49
2022/07/06 01:26:46;;;;;;;;;;;;;;;24.38;46.44;98675.16;2087873;28;19933;-48
2022/07/06 01:27:47;;;;;;;;;;;;;;;24.37;46.24;98675.38;2092044;28;19935;-49
2022/07/06 01:28:50;;;;;;;;;;;;;;;24.42;45.68;98667.34;2091926;28;20039;-51
2022/07/06 01:29:50;;;;;;;;;;;;;;;24.24;46.79;98671.88;2091436;28;20396;-49
2022/07/06 01:30:52;;;;;;;;;;;;;;;24.19;46.72;98673.66;2089119;28;19932;-49
2022/07/06 01:31:52;;;;;;;;;;;;;;;24.25;46.72;98670.00;2088822;28;19940;-50
2022/07/06 01:32:54;;;;;;;;;;;;;;;24.33;46.83;98668.81;2086804;28;20389;-49
2022/07/06 01:33:55;;;;;;;;;;;;;;;24.33;46.46;98664.19;2089825;28;20485;-49
2022/07/06 01:34:57;;;;;;;;;;;;;;;24.37;46.01;98669.94;2091468;28;19936;-49
2022/07/06 01:36:00;;;;;;;;;;;;;;;24.39;45.96;98675.97;2087627;28;19932;-49
2022/07/06 01:37:01;;;;;;;;;;;;;;;24.34;46.42;98670.44;2088019;28;19924;-52
2022/07/06 01:38:02;;;;;;;;;;;;;;;24.26;46.80;98668.91;2087934;28;19938;-49
2022/07/06 01:39:03;;;;;;;;;;;;;;;24.19;46.90;98668.25;2085937;28;20530;-49
2022/07/06 01:40:06;;;;;;;;;;;;;;;24.24;46.39;98671.88;2088767;28;19975;-52
2022/07/06 01:41:06;;;;;;;;;;;;;;;24.24;46.39;98669.19;2081380;28;19955;-49
2022/07/06 01:42:08;;;;;;;;;;;;;;;24.25;46.18;98672.69;2090320;28;20306;-51
2022/07/06 01:43:08;;;;;;;;;;;;;;;24.25;46.24;98667.28;2087027;28;20916;-50
2022/07/06 01:44:10;;;;;;;;;;;;;;;24.30;46.15;98668.22;2088773;28;19968;-49
2022/07/06 01:45:11;;;;;;;;;;;;;;;24.28;46.25;98667.63;2090277;28;19933;-51
2022/07/06 01:46:13;;;;;;;;;;;;;;;24.24;46.32;98666.47;2091458;28;19994;-50
2022/07/06 01:47:13;;;;;;;;;;;;;;;24.22;46.59;98667.75;2089283;28;19928;-51
2022/07/06 01:48:15;;;;;;;;;;;;;;;24.27;46.36;98670.59;2091396;28;20050;-49
2022/07/06 01:49:15;;;;;;;;;;;;;;;24.27;46.40;98665.97;2088369;28;20019;-52
2022/07/06 01:50:17;;;;;;;;;;;;;;;24.29;46.26;98663.00;2090778;28;19935;-49
2022/07/06 01:51:19;;;;;;;;;;;;;;;24.24;46.22;98663.75;2088528;28;19951;-50
2022/07/06 01:52:21;;;;;;;;;;;;;;;24.25;46.07;98662.69;2087590;28;19948;-52
2022/07/06 01:53:21;;;;;;;;;;;;;;;24.24;46.47;98661.03;2085588;28;19943;-51
2022/07/06 01:54:23;;;;;;;;;;;;;;;24.18;46.67;98661.16;2090032;28;19928;-52
2022/07/06 01:55:24;;;;;;;;;;;;;;;24.12;46.92;98662.94;2085904;28;19932;-50
2022/07/06 01:56:25;;;;;;;;;;;;;;;24.12;46.97;98657.53;2083634;28;19928;-52
2022/07/06 01:57:27;;;;;;;;;;;;;;;24.21;46.44;98658.81;2089142;28;19932;-49
2022/07/06 01:58:27;;;;;;;;;;;;;;;24.23;46.38;98669.41;2083722;28;20290;-51
2022/07/06 01:59:29;;;;;;;;;;;;;;;24.18;46.15;98667.44;2088071;28;19935;-50
2022/07/06 02:00:30;;;;;;;;;;;;;;;24.17;46.20;98668.47;2088308;28;19925;-50
2022/07/06 02:01:31;;;;;;;;;;;;;;;24.12;46.76;98670.25;2089081;28;19928;-52
2022/07/06 02:02:33;;;;;;;;;;;;;;;24.12;46.74;98672.97;2088012;28;19932;-49
2022/07/06 02:03:33;;;;;;;;;;;;;;;24.11;46.87;98668.63;2089429;28;20382;-51
2022/07/06 02:04:35;;;;;;;;;;;;;;;24.20;46.38;98669.88;2088894;28;19966;-49
2022/07/06 02:05:35;;;;;;;;;;;;;;;24.12;46.65;98671.06;2086266;28;19931;-49
2022/07/06 02:06:38;;;;;;;;;;;;;;;24.17;46.25;98673.91;2078948;28;19928;-50
2022/07/06 02:07:39;;;;;;;;;;;;;;;24.13;46.34;98674.63;2086576;28;19932;-51
2022/07/06 02:08:41;;;;;;;;;;;;;;;24.15;46.39;98669.78;2083801;28;19935;-55
2022/07/06 02:09:42;;;;;;;;;;;;;;;24.17;46.23;98659.53;2088475;28;19935;-53
2022/07/06 02:10:43;;;;;;;;;;;;;;;24.05;46.75;98664.97;2082547;28;19935;-55
2022/07/06 02:11:44;;;;;;;;;;;;;;;24.08;46.85;98661.78;2090237;28;19929;-55
2022/07/06 02:12:46;;;;;;;;;;;;;;;24.10;46.70;98665.09;2081960;28;20033;-52
2022/07/06 02:13:46;;;;;;;;;;;;;;;24.16;46.19;98658.72;2089884;28;19989;-52
2022/07/06 02:14:48;;;;;;;;;;;;;;;24.13;46.30;98663.78;2087398;28;20917;-52
2022/07/06 02:15:49;;;;;;;;;;;;;;;24.12;46.09;98656.69;2087172;28;19925;-50
2022/07/06 02:16:50;;;;;;;;;;;;;;;24.13;46.19;98653.78;2089856;28;19932;-55
2022/07/06 02:17:51;;;;;;;;;;;;;;;24.09;46.44;98649.88;2087487;28;19932;-53
2022/07/06 02:18:52;;;;;;;;;;;;;;;24.06;46.59;98659.31;2089853;28;20647;-54
2022/07/06 02:19:53;;;;;;;;;;;;;;;24.13;46.50;98656.47;2091689;28;19939;-56
2022/07/06 02:20:54;;;;;;;;;;;;;;;24.08;46.73;98657.19;2088097;28;19928;-55
2022/07/06 02:21:56;;;;;;;;;;;;;;;24.10;46.50;98662.38;2092026;28;19947;-51
2022/07/06 02:22:58;;;;;;;;;;;;;;;24.11;46.40;98660.50;2086297;28;19932;-52
2022/07/06 02:23:59;;;;;;;;;;;;;;;24.11;46.25;98655.06;2085312;28;19928;-51
2022/07/06 02:25:00;;;;;;;;;;;;;;;24.08;46.39;98667.22;2088845;28;19929;-52
2022/07/06 02:26:01;;;;;;;;;;;;;;;24.03;46.76;98659.78;2087150;28;19932;-52
2022/07/06 02:27:02;;;;;;;;;;;;;;;24.01;46.72;98664.59;2090959;28;19933;-50
2022/07/06 02:28:03;;;;;;;;;;;;;;;24.09;46.42;98666.94;2091417;28;19924;-55
2022/07/06 02:29:05;;;;;;;;;;;;;;;24.11;46.69;98666.72;2090645;28;20020;-51
2022/07/06 02:30:06;;;;;;;;;;;;;;;24.10;46.72;98665.09;2090409;28;20505;-50
2022/07/06 02:31:07;;;;;;;;;;;;;;;24.14;46.72;98660.00;2091537;28;19928;-52
2022/07/06 02:32:08;;;;;;;;;;;;;;;24.09;46.73;98666.13;2090176;28;19932;-52
2022/07/06 02:33:09;;;;;;;;;;;;;;;24.10;46.73;98662.38;2092137;28;20035;-52
2022/07/06 02:34:10;;;;;;;;;;;;;;;24.16;47.05;98661.41;2090231;28;19932;-51
2022/07/06 02:35:11;;;;;;;;;;;;;;;24.10;47.24;98662.38;2087469;28;20032;-52
2022/07/06 02:36:12;;;;;;;;;;;;;;;24.10;47.33;98654.25;2091621;28;19939;-50
2022/07/06 02:37:15;;;;;;;;;;;;;;;24.14;47.08;98663.53;2090221;28;20002;-52
2022/07/06 02:38:16;;;;;;;;;;;;;;;24.16;46.93;98657.88;2090747;28;20019;-53
2022/07/06 02:39:17;;;;;;;;;;;;;;;24.15;46.93;98657.03;2090949;28;20106;-52
2022/07/06 02:40:18;;;;;;;;;;;;;;;24.13;46.93;98655.66;2085684;28;19932;-53
2022/07/06 02:41:19;;;;;;;;;;;;;;;24.17;47.06;98654.09;2085032;28;19925;-53
2022/07/06 02:42:20;;;;;;;;;;;;;;;24.12;47.19;98654.81;2086078;28;19928;-52
2022/07/06 02:43:21;;;;;;;;;;;;;;;24.13;47.12;98652.94;2090144;28;19935;-55
2022/07/06 02:44:22;;;;;;;;;;;;;;;24.13;47.00;98648.34;2089348;28;20421;-53
2022/07/06 02:45:24;;;;;;;;;;;;;;;24.11;47.28;98645.03;2089984;28;19924;-53
2022/07/06 02:46:24;;;;;;;;;;;;;;;24.12;47.11;98654.00;2091605;28;19928;-50
2022/07/06 02:47:27;;;;;;;;;;;;;;;24.11;47.17;98661.31;2087093;28;19928;-57
2022/07/06 02:48:27;;;;;;;;;;;;;;;24.11;46.98;98650.47;2089978;28;19939;-54
2022/07/06 02:49:29;;;;;;;;;;;;;;;24.16;46.81;98663.31;2087553;28;20353;-52
2022/07/06 02:50:29;;;;;;;;;;;;;;;24.13;47.22;98667.31;2086709;28;19924;-50
2022/07/06 02:51:31;;;;;;;;;;;;;;;24.03;47.32;98662.50;2089393;28;20059;-55
2022/07/06 02:52:33;;;;;;;;;;;;;;;24.10;47.36;98665.09;2090825;28;19925;-54
2022/07/06 02:53:34;;;;;;;;;;;;;;;24.14;47.06;98665.44;2089486;28;20044;-52
2022/07/06 02:54:35;;;;;;;;;;;;;;;24.13;46.77;98666.50;2091373;28;19924;-52
2022/07/06 02:55:37;;;;;;;;;;;;;;;24.10;46.86;98673.22;2084734;28;19979;-52
2022/07/06 02:56:37;;;;;;;;;;;;;;;24.05;47.13;98664.97;2084091;28;19933;-54
2022/07/06 02:57:39;;;;;;;;;;;;;;;24.05;47.23;98667.69;2086480;28;19928;-54
2022/07/06 02:58:39;;;;;;;;;;;;;;;24.00;47.39;98675.69;2090787;28;19925;-50
2022/07/06 02:59:41;;;;;;;;;;;;;;;24.01;47.49;98678.16;2091727;28;19928;-54
2022/07/06 03:00:42;;;;;;;;;;;;;;;24.02;47.47;98676.28;2089101;28;19928;-53
2022/07/06 03:01:43;;;;;;;;;;;;;;;24.06;47.47;98675.56;2091647;28;19928;-52
2022/07/06 03:02:44;;;;;;;;;;;;;;;24.09;47.07;98680.50;2089878;28;20032;-54
2022/07/06 03:03:45;;;;;;;;;;;;;;;24.11;46.92;98674.84;2089984;28;20016;-55
2022/07/06 03:04:46;;;;;;;;;;;;;;;24.08;46.88;98678.03;2089759;28;19928;-53
2022/07/06 03:05:48;;;;;;;;;;;;;;;24.04;47.09;98674.16;2090479;28;20293;-55
2022/07/06 03:06:49;;;;;;;;;;;;;;;23.97;47.50;98674.28;2088646;28;20027;-56
2022/07/06 03:07:52;;;;;;;;;;;;;;;23.95;47.68;98670.97;2084611;28;19944;-54
2022/07/06 03:08:52;;;;;;;;;;;;;;;23.98;47.57;98677.81;2083082;28;19966;-50
2022/07/06 03:09:54;;;;;;;;;;;;;;;24.01;47.42;98677.34;2087732;28;19995;-54
2022/07/06 03:10:54;;;;;;;;;;;;;;;24.03;47.24;98675.22;2082946;28;20271;-52
2022/07/06 03:11:56;;;;;;;;;;;;;;;23.98;47.12;98677.81;2088782;28;19935;-56
2022/07/06 03:12:57;;;;;;;;;;;;;;;24.03;47.13;98686.06;2089637;28;19935;-56
2022/07/06 03:13:58;;;;;;;;;;;;;;;24.06;47.38;98680.16;2090047;28;19987;-53
2022/07/06 03:14:59;;;;;;;;;;;;;;;24.05;47.36;98681.22;2090940;28;20382;-51
2022/07/06 03:16:00;;;;;;;;;;;;;;;23.93;47.33;98677.69;2091514;28;19928;-50
2022/07/06 03:17:01;;;;;;;;;;;;;;;23.96;47.35;98682.63;2089950;28;21484;-51
2022/07/06 03:18:02;;;;;;;;;;;;;;;23.97;47.29;98679.69;2090002;28;19928;-50
2022/07/06 03:19:03;;;;;;;;;;;;;;;24.04;47.00;98676.84;2083871;28;19929;-49
2022/07/06 03:20:05;;;;;;;;;;;;;;;24.04;47.13;98684.97;2083868;28;20307;-50
2022/07/06 03:21:06;;;;;;;;;;;;;;;23.99;47.18;98679.47;2088524;28;19928;-50
2022/07/06 03:22:08;;;;;;;;;;;;;;;23.95;47.22;98678.28;2090086;28;19925;-52
2022/07/06 03:23:09;;;;;;;;;;;;;;;23.96;47.55;98679.94;2090356;28;19929;-50
2022/07/06 03:24:11;;;;;;;;;;;;;;;23.90;47.55;98679.00;2088596;28;19943;-50
2022/07/06 03:25:11;;;;;;;;;;;;;;;23.92;47.49;98679.59;2085691;28;19929;-48
2022/07/06 03:26:13;;;;;;;;;;;;;;;23.99;47.35;98682.19;2088787;28;19934;-52
2022/07/06 03:27:15;;;;;;;;;;;;;;;23.96;47.15;98680.78;2090649;28;19929;-49
2022/07/06 03:28:16;;;;;;;;;;;;;;;23.94;47.30;98682.88;2088580;28;19934;-50
2022/07/06 03:29:17;;;;;;;;;;;;;;;23.98;47.09;98686.75;2090029;28;19940;-50
2022/07/06 03:30:18;;;;;;;;;;;;;;;23.96;46.99;98690.75;2091274;28;20412;-49
2022/07/06 03:31:19;;;;;;;;;;;;;;;23.90;47.34;98689.00;2089916;28;19963;-49
2022/07/06 03:32:20;;;;;;;;;;;;;;;23.92;47.32;98687.72;2081861;28;19958;-51
2022/07/06 03:33:21;;;;;;;;;;;;;;;23.92;47.30;98692.31;2088211;28;20390;-50
2022/07/06 03:34:23;;;;;;;;;;;;;;;23.93;47.28;98686.69;2086857;28;19929;-52
2022/07/06 03:35:23;;;;;;;;;;;;;;;23.91;47.42;98687.97;2092170;28;19932;-48
2022/07/06 03:36:25;;;;;;;;;;;;;;;23.92;47.24;98695.84;2091897;28;20381;-52
2022/07/06 03:37:26;;;;;;;;;;;;;;;23.93;47.20;98686.69;2078108;28;20512;-49
2022/07/06 03:38:29;;;;;;;;;;;;;;;23.99;47.13;98684.91;2087789;28;20019;-48
2022/07/06 03:39:29;;;;;;;;;;;;;;;23.89;47.57;98685.47;2087496;28;19924;-49
2022/07/06 03:40:31;;;;;;;;;;;;;;;23.93;47.45;98693.94;2084056;28;19938;-52
2022/07/06 03:41:32;;;;;;;;;;;;;;;23.94;47.44;98693.72;2089541;28;19931;-48
2022/07/06 03:42:33;;;;;;;;;;;;;;;23.95;47.58;98691.84;2084336;28;19950;-49
2022/07/06 03:43:34;;;;;;;;;;;;;;;23.94;47.22;98691.03;2084454;28;19929;-51
2022/07/06 03:44:36;;;;;;;;;;;;;;;23.93;47.13;98691.25;2085313;28;19924;-51
2022/07/06 03:45:36;;;;;;;;;;;;;;;23.95;46.99;98700.78;2087880;28;19924;-48
2022/07/06 03:46:38;;;;;;;;;;;;;;;23.84;47.35;98691.59;2089428;28;19938;-51
2022/07/06 03:47:38;;;;;;;;;;;;;;;23.85;47.46;98689.75;2090771;28;19932;-49
2022/07/06 03:48:40;;;;;;;;;;;;;;;23.92;47.25;98692.31;2089161;28;20050;-51
2022/07/06 03:49:40;;;;;;;;;;;;;;;23.93;47.44;98686.69;2090245;28;19929;-50
2022/07/06 03:50:42;;;;;;;;;;;;;;;23.93;47.30;98693.94;2088106;28;20916;-46
2022/07/06 03:51:43;;;;;;;;;;;;;;;23.90;47.20;98691.72;2089697;28;19928;-48
2022/07/06 03:52:44;;;;;;;;;;;;;;;23.85;47.05;98690.56;2091468;28;19939;-49
2022/07/06 03:53:46;;;;;;;;;;;;;;;23.90;46.96;98694.44;2087438;28;19952;-48
2022/07/06 03:54:48;;;;;;;;;;;;;;;23.81;47.34;98694.78;2083918;28;19940;-50
2022/07/06 03:57:05;;;;;;;;;;;;;;;23.89;47.36;98700.91;2089150;28;20436;-49
2022/07/06 03:58:05;;;;;;;;;;;;;;;23.89;47.35;98690.09;2091178;28;19969;-48
2022/07/06 03:59:07;;;;;;;;;;;;;;;23.85;47.19;98689.75;2089553;28;19931;-50
2022/07/06 04:00:08;;;;;;;;;;;;;;;23.88;46.98;98693.88;2087743;28;19947;-48
2022/07/06 04:01:10;;;;;;;;;;;;;;;23.85;47.20;98693.25;2090323;28;20007;-51
2022/07/06 04:02:10;;;;;;;;;;;;;;;23.81;47.54;98686.66;2090109;28;19931;-53
2022/07/06 04:03:12;;;;;;;;;;;;;;;23.79;47.34;98688.81;2090495;28;19933;-51
2022/07/06 04:04:13;;;;;;;;;;;;;;;23.79;47.57;98686.09;2091201;28;19936;-51
2022/07/06 04:05:15;;;;;;;;;;;;;;;23.80;47.46;98682.31;2088559;28;19938;-48
2022/07/06 04:06:16;;;;;;;;;;;;;;;23.82;47.05;98685.63;2086588;28;19935;-53
2022/07/06 04:07:17;;;;;;;;;;;;;;;23.83;47.01;98687.25;2080602;28;20415;-52
2022/07/06 04:08:18;;;;;;;;;;;;;;;23.87;47.12;98687.59;2088152;28;19940;-51
2022/07/06 04:09:21;;;;;;;;;;;;;;;23.77;47.48;98684.69;2082538;28;20562;-55
2022/07/06 04:10:21;;;;;;;;;;;;;;;23.82;47.68;98691.03;2086526;28;19932;-51
2022/07/06 04:11:23;;;;;;;;;;;;;;;23.79;47.62;98683.38;2089028;28;19932;-48
2022/07/06 04:12:23;;;;;;;;;;;;;;;23.85;47.42;98687.84;2091370;28;19932;-54
2022/07/06 04:13:26;;;;;;;;;;;;;;;23.87;47.44;98684.88;2085947;28;20014;-47
2022/07/06 04:14:27;;;;;;;;;;;;;;;23.83;47.13;98687.25;2088749;28;19940;-52
2022/07/06 04:15:28;;;;;;;;;;;;;;;23.78;47.23;98684.44;2084445;28;20030;-52
2022/07/06 04:16:29;;;;;;;;;;;;;;;23.82;47.25;98685.63;2085628;28;19940;-50
2022/07/06 04:19:04;;;;;;;;;;;;;;;23.77;47.37;98685.50;2063056;28;20375;-51
2022/07/06 04:20:05;;;;;;;;;;;;;;;23.77;47.04;98680.09;2060974;28;20643;-50
2022/07/06 04:21:07;;;;;;;;;;;;;;;23.74;47.60;98680.56;2065161;28;19935;-53
2022/07/06 04:22:07;;;;;;;;;;;;;;;23.73;47.51;98686.19;2065004;28;19936;-51
2022/07/06 04:23:09;;;;;;;;;;;;;;;23.68;47.67;98681.47;2064975;28;19971;-54
2022/07/06 04:24:09;;;;;;;;;;;;;;;23.78;47.64;98684.44;2063392;28;20532;-47
2022/07/06 04:25:12;;;;;;;;;;;;;;;23.80;47.56;98687.72;2081489;28;19934;-54
2022/07/06 04:26:14;;;;;;;;;;;;;;;23.74;47.36;98687.88;2087025;28;20023;-49
2022/07/06 04:27:14;;;;;;;;;;;;;;;23.77;47.40;98695.50;2090295;28;20003;-52
2022/07/06 04:28:16;;;;;;;;;;;;;;;23.77;47.13;98688.22;2090294;28;19934;-49
2022/07/06 04:29:18;;;;;;;;;;;;;;;23.78;47.66;98694.44;2086806;28;19932;-50
2022/07/06 04:30:18;;;;;;;;;;;;;;;23.75;47.64;98695.72;2088745;28;19947;-50
2022/07/06 04:31:20;;;;;;;;;;;;;;;23.76;47.40;98702.78;2087663;28;19929;-48
2022/07/06 04:32:20;;;;;;;;;;;;;;;23.67;47.40;98693.34;2083602;28;20574;-52
2022/07/06 04:33:22;;;;;;;;;;;;;;;23.62;47.15;98695.94;2081492;28;19931;-49
2022/07/06 04:34:22;;;;;;;;;;;;;;;23.57;47.02;98696.66;2090476;28;19928;-49
2022/07/06 04:35:24;;;;;;;;;;;;;;;23.48;47.06;98687.22;2090449;28;20654;-48
2022/07/06 04:36:24;;;;;;;;;;;;;;;23.48;46.99;98689.09;2090992;28;20546;-48
2022/07/06 04:37:26;;;;;;;;;;;;;;;23.34;47.22;98691.19;2091087;28;19939;-50
2022/07/06 04:38:27;;;;;;;;;;;;;;;23.29;47.25;98688.34;2089933;28;19939;-49
2022/07/06 04:39:30;;;;;;;;;;;;;;;23.32;47.51;98690.63;2090464;28;19998;-52
2022/07/06 04:40:32;;;;;;;;;;;;;;;23.34;47.35;98693.91;2084541;28;20008;-50
2022/07/06 04:41:34;;;;;;;;;;;;;;;23.31;47.12;98694.38;2091817;28;20077;-50
2022/07/06 04:42:34;;;;;;;;;;;;;;;23.30;47.09;98698.97;2091635;28;20247;-51
2022/07/06 04:43:36;;;;;;;;;;;;;;;23.26;46.76;98702.34;2091028;28;20566;-49
2022/07/06 04:44:36;;;;;;;;;;;;;;;23.25;47.01;98706.94;2091253;28;20004;-51
2022/07/06 04:45:38;;;;;;;;;;;;;;;23.16;47.58;98702.94;2094121;28;20027;-49
2022/07/06 04:46:38;;;;;;;;;;;;;;;23.10;47.54;98709.28;2093087;28;19940;-52
2022/07/06 04:47:40;;;;;;;;;;;;;;;23.17;47.52;98704.56;2087381;28;20541;-53
2022/07/06 04:48:42;;;;;;;;;;;;;;;23.18;47.12;98709.78;2091285;28;19931;-54
2022/07/06 04:49:43;;;;;;;;;;;;;;;23.20;46.77;98704.13;2088128;28;19940;-50
2022/07/06 04:50:44;;;;;;;;;;;;;;;23.17;47.01;98694.56;2092500;28;19925;-51
2022/07/06 04:51:45;;;;;;;;;;;;;;;23.18;46.92;98711.66;2091961;28;20071;-50
2022/07/06 04:52:46;;;;;;;;;;;;;;;23.16;46.85;98700.22;2093299;28;20000;-51
2022/07/06 04:53:47;;;;;;;;;;;;;;;23.14;47.22;98700.44;2093892;28;20481;-52
2022/07/06 04:54:48;;;;;;;;;;;;;;;23.05;47.45;98709.16;2091977;28;19967;-48
2022/07/06 04:55:50;;;;;;;;;;;;;;;23.10;47.27;98701.97;2083517;28;26606;-51
2022/07/06 04:56:52;;;;;;;;;;;;;;;23.10;47.07;98709.28;2089278;28;19947;-49
2022/07/06 04:57:52;;;;;;;;;;;;;;;23.06;47.11;98708.09;2091139;28;20310;-53
2022/07/06 04:58:54;;;;;;;;;;;;;;;23.10;46.90;98714.69;2080419;28;19932;-53
2022/07/06 04:59:55;;;;;;;;;;;;;;;23.15;46.75;98714.81;2089285;28;19985;-54
2022/07/06 05:00:56;;;;;;;;;;;;;;;23.13;46.92;98725.06;2086389;28;20618;-53
2022/07/06 05:01:57;;;;;;;;;;;;;;;23.35;46.48;98717.22;2088624;28;19940;-53
2022/07/06 05:02:58;;;;;;;;;;;;;;;23.63;45.83;98719.25;2091384;28;19935;-53
2022/07/06 05:03:59;;;;;;;;;;;;;;;23.88;45.44;98716.34;2089880;28;20722;-52
2022/07/06 05:05:00;;;;;;;;;;;;;;;24.05;45.60;98716.47;2088153;28;19934;-50
2022/07/06 05:06:01;;;;;;;;;;;;;;;24.20;46.00;98714.06;2087736;28;19928;-54
2022/07/06 05:07:03;;;;;;;;;;;;;;;24.34;46.35;98711.09;2090929;28;19932;-54
2022/07/06 05:08:04;;;;;;;;;;;;;;;24.46;46.37;98711.91;2090786;28;19943;-52
2022/07/06 05:09:08;;;;;;;;;;;;;;;24.54;46.45;98714.25;2081072;28;19936;-51
2022/07/06 05:10:10;;;;;;;;;;;;;;;24.61;46.51;98714.94;2081567;28;20759;-52
2022/07/06 05:11:12;;;;;;;;;;;;;;;24.68;46.57;98721.06;2084635;28;19932;-53
2022/07/06 05:12:14;;;;;;;;;;;;;;;24.74;46.68;98714.66;2091786;28;19940;-50
2022/07/06 05:13:14;;;;;;;;;;;;;;;24.80;46.86;98717.47;2090826;28;19931;-50
2022/07/06 05:14:16;;;;;;;;;;;;;;;24.88;46.77;98717.09;2092664;28;19931;-50
2022/07/06 05:15:16;;;;;;;;;;;;;;;24.91;46.93;98716.59;2089127;28;19928;-52
2022/07/06 05:16:18;;;;;;;;;;;;;;;24.96;47.12;98716.66;2091078;28;19931;-53
2022/07/06 05:17:19;;;;;;;;;;;;;;;25.00;47.19;98719.75;2092864;28;19924;-53
2022/07/06 05:18:20;;;;;;;;;;;;;;;25.05;47.21;98717.94;2092335;28;19935;-49
2022/07/06 05:19:21;;;;;;;;;;;;;;;25.10;47.26;98709.06;2089589;28;19932;-53
2022/07/06 05:20:22;;;;;;;;;;;;;;;25.14;47.44;98719.22;2089587;28;20426;-46
2022/07/06 05:21:23;;;;;;;;;;;;;;;25.19;48.30;98711.16;2092118;28;19932;-47
2022/07/06 05:22:25;;;;;;;;;;;;;;;25.28;49.02;98710.78;2084609;28;19986;-49
2022/07/06 05:23:25;;;;;;;;;;;;;;;25.35;48.91;98708.69;2086473;28;19978;-49